Time;durP1;ratioP1;P1;durP2;ratioP2;P2;SDS_P1;SDS_P2;PMS_P1;PMS_P2;Temp;Humidity;BMP_temperature;BMP_pressure;BME280_temperature;BME280_humidity;BME280_pressure;Samples;Min_cycle;Max_cycle;Signal;HPM_P1;HPM_P2
2022/05/07 00:03:16;;;;;;;5.97;1.88;;;;;;;;;;8252425;28;20308;-59
2022/05/07 00:07:16;;;;;;;2.67;2.20;;;;;;;;;;8254070;28;20241;-58
2022/05/07 00:11:20;;;;;;;2.75;2.30;;;;;;;;;;8254795;28;20037;-59
2022/05/07 00:15:20;;;;;;;;;;;;;;;;;;8254934;28;20030;-59
2022/05/07 00:19:20;;;;;;;3.83;1.98;;;;;;;;;;8254375;28;20362;-59
2022/05/07 00:23:21;;;;;;;3.50;2.10;;;;;;;;;;8251796;28;20014;-59
2022/05/07 00:27:21;;;;;;;3.28;2.28;;;;;;;;;;8256290;28;20057;-59
2022/05/07 00:31:21;;;;;;;4.20;2.78;;;;;;;;;;8254933;28;20045;-59
2022/05/07 00:35:21;;;;;;;6.90;3.85;;;;;;;;;;8253252;28;20026;-59
2022/05/07 00:39:21;;;;;;;7.90;3.85;;;;;;;;;;8254543;28;20064;-59
2022/05/07 00:43:21;;;;;;;8.00;3.80;;;;;;;;;;8251957;28;20463;-59
2022/05/07 00:47:23;;;;;;;7.25;4.15;;;;;;;;;;8251999;28;20037;-59
2022/05/07 00:51:33;;;;;;;5.35;4.20;;;;;;;;;;8258973;28;20030;-59
2022/05/07 00:55:34;;;;;;;5.90;3.90;;;;;;;;;;8260169;28;21127;-59
2022/05/07 00:59:34;;;;;;;4.20;3.80;;;;;;;;;;8261305;28;20038;-60
2022/05/07 01:03:35;;;;;;;4.20;3.80;;;;;;;;;;8260236;28;20080;-60
2022/05/07 01:07:35;;;;;;;8.90;4.60;;;;;;;;;;8261027;28;20025;-60
2022/05/07 01:11:35;;;;;;;4.87;3.70;;;;;;;;;;8261736;28;20739;-60
2022/05/07 01:15:43;;;;;;;5.17;4.53;;;;;;;;;;8259989;28;20308;-59
2022/05/07 01:19:43;;;;;;;5.55;3.95;;;;;;;;;;8290205;28;20299;-60
2022/05/07 01:23:44;;;;;;;5.60;4.60;;;;;;;;;;8259024;28;20109;-60
2022/05/07 01:27:44;;;;;;;6.43;4.40;;;;;;;;;;8260656;28;20026;-59
2022/05/07 01:31:45;;;;;;;8.40;4.85;;;;;;;;;;8259136;28;20088;-61
2022/05/07 01:35:45;;;;;;;5.68;4.78;;;;;;;;;;8254162;28;20686;-60
2022/05/07 01:39:45;;;;;;;6.55;5.03;;;;;;;;;;8258173;28;20045;-60
2022/05/07 01:43:45;;;;;;;6.72;4.95;;;;;;;;;;8256882;28;20103;-60
2022/05/07 01:52:05;;;;;;;6.80;5.40;;;;;;;;;;8256623;28;20115;-60
2022/05/07 01:56:05;;;;;;;7.05;5.20;;;;;;;;;;8258024;28;20030;-60
2022/05/07 02:00:06;;;;;;;7.80;5.47;;;;;;;;;;8255852;28;20083;-60
2022/05/07 02:04:06;;;;;;;6.05;5.20;;;;;;;;;;8257740;28;20045;-59
2022/05/07 02:08:06;;;;;;;6.82;5.07;;;;;;;;;;8258058;28;20121;-59
2022/05/07 02:12:07;;;;;;;7.90;5.63;;;;;;;;;;8255565;28;20105;-60
2022/05/07 02:16:07;;;;;;;8.10;5.78;;;;;;;;;;8256805;28;20855;-60
2022/05/07 02:20:08;;;;;;;7.10;5.63;;;;;;;;;;8257429;28;20030;-60
2022/05/07 02:24:08;;;;;;;8.35;5.55;;;;;;;;;;8257454;28;20034;-60
2022/05/07 02:28:08;;;;;;;7.03;5.80;;;;;;;;;;8257672;28;20096;-60
2022/05/07 02:32:13;;;;;;;7.53;5.93;;;;;;;;;;8255722;28;20034;-60
2022/05/07 02:36:13;;;;;;;9.23;5.82;;;;;;;;;;8258066;28;20054;-60
2022/05/07 02:40:14;;;;;;;9.05;6.28;;;;;;;;;;8258235;28;21030;-60
2022/05/07 02:44:14;;;;;;;7.00;6.30;;;;;;;;;;8258538;28;20032;-60
2022/05/07 02:48:14;;;;;;;6.85;6.00;;;;;;;;;;8258608;28;21036;-61
2022/05/07 02:52:14;;;;;;;7.28;5.97;;;;;;;;;;8257336;28;20028;-60
2022/05/07 02:56:14;;;;;;;6.82;6.13;;;;;;;;;;8257853;28;20149;-60
2022/05/07 03:00:16;;;;;;;7.78;4.93;;;;;;;;;;8258749;28;20769;-60
2022/05/07 03:04:16;;;;;;;6.68;5.38;;;;;;;;;;8256900;28;20531;-60
2022/05/07 03:08:16;;;;;;;5.90;5.30;;;;;;;;;;8258600;28;20045;-60
2022/05/07 03:12:17;;;;;;;6.60;5.47;;;;;;;;;;8256890;28;20299;-61
2022/05/07 03:16:17;;;;;;;7.43;5.95;;;;;;;;;;8261909;28;20417;-60
2022/05/07 03:20:18;;;;;;;8.20;5.13;;;;;;;;;;8263653;28;20684;-60
2022/05/07 03:24:18;;;;;;;6.13;5.05;;;;;;;;;;8262426;28;20022;-59
2022/05/07 03:28:19;;;;;;;6.57;5.50;;;;;;;;;;8263916;28;20050;-59
2022/05/07 03:32:19;;;;;;;8.23;5.25;;;;;;;;;;8263432;28;20749;-60
2022/05/07 03:36:22;;;;;;;6.28;5.13;;;;;;;;;;8264900;28;20099;-59
2022/05/07 03:40:23;;;;;;;8.93;5.20;;;;;;;;;;8263110;28;20445;-60
2022/05/07 03:44:23;;;;;;;5.60;4.75;;;;;;;;;;8263820;28;20056;-60
2022/05/07 03:48:25;;;;;;;7.07;4.47;;;;;;;;;;8261952;28;20780;-60
2022/05/07 03:56:45;;;;;;;5.38;4.57;;;;;;;;;;8263116;28;20204;-59
2022/05/07 04:00:45;;;;;;;5.65;4.20;;;;;;;;;;8262442;28;20065;-60
2022/05/07 04:04:47;;;;;;;5.00;4.50;;;;;;;;;;8259863;28;20025;-59
2022/05/07 04:08:47;;;;;;;5.50;4.75;;;;;;;;;;8262857;28;20128;-59
2022/05/07 04:12:50;;;;;;;10.27;5.00;;;;;;;;;;8262586;28;20129;-59
2022/05/07 04:16:51;;;;;;;8.45;5.03;;;;;;;;;;8262445;28;20038;-59
2022/05/07 04:20:51;;;;;;;5.00;4.33;;;;;;;;;;8260676;28;20114;-58
2022/05/07 04:24:51;;;;;;;7.03;4.40;;;;;;;;;;8262760;28;20272;-59
2022/05/07 04:28:51;;;;;;;6.68;4.45;;;;;;;;;;8262382;28;20112;-60
2022/05/07 04:32:52;;;;;;;6.68;4.28;;;;;;;;;;8261101;28;20042;-60
2022/05/07 04:36:52;;;;;;;6.03;4.28;;;;;;;;;;8261241;28;20117;-61
2022/05/07 04:40:53;;;;;;;6.05;4.20;;;;;;;;;;8261316;28;20619;-60
2022/05/07 04:44:53;;;;;;;4.88;4.10;;;;;;;;;;8263255;28;20105;-60
2022/05/07 04:48:53;;;;;;;6.83;4.23;;;;;;;;;;8262506;28;20386;-60
2022/05/07 04:52:53;;;;;;;4.82;3.70;;;;;;;;;;8262933;28;20264;-60
2022/05/07 04:56:54;;;;;;;5.73;4.50;;;;;;;;;;8259943;28;20014;-60
2022/05/07 05:00:54;;;;;;;7.57;4.97;;;;;;;;;;8261295;28;20284;-60
2022/05/07 05:04:54;;;;;;;6.68;4.40;;;;;;;;;;8259161;28;20029;-60
2022/05/07 05:08:54;;;;;;;4.63;4.20;;;;;;;;;;8260647;28;20340;-60
2022/05/07 05:12:55;;;;;;;8.37;4.50;;;;;;;;;;8262932;28;20273;-60
2022/05/07 05:16:55;;;;;;;6.47;4.78;;;;;;;;;;8258598;28;20070;-60
2022/05/07 05:20:55;;;;;;;7.60;4.50;;;;;;;;;;8259047;28;20026;-59
2022/05/07 05:24:55;;;;;;;5.25;4.45;;;;;;;;;;8261525;28;20029;-59
2022/05/07 05:28:55;;;;;;;5.82;4.57;;;;;;;;;;8258803;28;21081;-60
2022/05/07 05:32:56;;;;;;;4.50;4.10;;;;;;;;;;8258740;28;20041;-61
2022/05/07 05:36:56;;;;;;;8.10;4.97;;;;;;;;;;8259186;28;20677;-59
2022/05/07 05:40:56;;;;;;;6.32;4.97;;;;;;;;;;8258696;28;20288;-60
2022/05/07 05:44:56;;;;;;;6.22;4.47;;;;;;;;;;8258624;28;20028;-60
2022/05/07 05:48:56;;;;;;;6.38;4.65;;;;;;;;;;8259297;28;20072;-60
2022/05/07 05:52:57;;;;;;;5.55;4.40;;;;;;;;;;8257813;28;20026;-60
2022/05/07 05:56:58;;;;;;;7.10;4.05;;;;;;;;;;8259265;28;20415;-61
2022/05/07 06:00:58;;;;;;;5.00;3.70;;;;;;;;;;8258196;28;20046;-60
2022/05/07 06:04:59;;;;;;;6.70;4.18;;;;;;;;;;8259602;28;20465;-60
2022/05/07 06:08:59;;;;;;;4.55;3.72;;;;;;;;;;8260418;28;20025;-60
2022/05/07 06:12:59;;;;;;;5.32;3.92;;;;;;;;;;8258077;28;20079;-61
2022/05/07 06:16:59;;;;;;;6.38;4.13;;;;;;;;;;8259668;28;20045;-60
2022/05/07 06:21:02;;;;;;;4.65;3.70;;;;;;;;;;8258146;28;20128;-60
2022/05/07 06:29:21;;;;;;;7.35;4.00;;;;;;;;;;8258186;28;20041;-60
2022/05/07 06:33:21;;;;;;;5.38;3.60;;;;;;;;;;8257356;28;20440;-60
2022/05/07 06:37:22;;;;;;;7.70;3.43;;;;;;;;;;8256311;28;20220;-61
2022/05/07 06:41:22;;;;;;;8.18;3.60;;;;;;;;;;8258251;28;20028;-60
2022/05/07 06:45:22;;;;;;;8.13;3.60;;;;;;;;;;8255989;28;20632;-60
2022/05/07 06:49:23;;;;;;;6.53;3.20;;;;;;;;;;8258026;28;20022;-60
2022/05/07 06:53:23;;;;;;;6.10;3.63;;;;;;;;;;8265416;28;20030;-61
2022/05/07 06:57:24;;;;;;;8.83;3.50;;;;;;;;;;8264297;28;20018;-61
2022/05/07 07:01:24;;;;;;;6.00;2.88;;;;;;;;;;8264249;28;20056;-61
2022/05/07 07:05:26;;;;;;;4.38;3.20;;;;;;;;;;8262598;28;20030;-61
2022/05/07 07:09:26;;;;;;;3.57;3.10;;;;;;;;;;8264584;28;20026;-61
2022/05/07 07:13:27;;;;;;;6.25;2.92;;;;;;;;;;8263125;28;20045;-61
2022/05/07 07:17:27;;;;;;;3.30;3.00;;;;;;;;;;8262489;28;20038;-60
2022/05/07 07:21:28;;;;;;;6.78;2.70;;;;;;;;;;8263905;28;20037;-61
2022/05/07 07:25:28;;;;;;;3.85;2.67;;;;;;;;;;8265140;28;20021;-61
2022/05/07 07:29:28;;;;;;;4.57;2.83;;;;;;;;;;8264123;28;20061;-60
2022/05/07 07:33:28;;;;;;;4.25;2.65;;;;;;;;;;8255348;28;20034;-60
2022/05/07 07:37:32;;;;;;;2.90;2.20;;;;;;;;;;8256605;28;20037;-60
2022/05/07 07:41:34;;;;;;;2.80;2.25;;;;;;;;;;8254509;28;20037;-60
2022/05/07 07:49:53;;;;;;;2.60;2.40;;;;;;;;;;8253347;28;20048;-60
2022/05/07 07:53:53;;;;;;;4.63;2.33;;;;;;;;;;8254865;28;20026;-60
2022/05/07 07:57:57;;;;;;;2.80;2.60;;;;;;;;;;8254561;28;20289;-61
2022/05/07 08:01:57;;;;;;;3.45;2.13;;;;;;;;;;8253114;28;20565;-61
2022/05/07 08:05:57;;;;;;;3.95;2.22;;;;;;;;;;8254175;28;20084;-61
2022/05/07 08:14:17;;;;;;;2.50;2.30;;;;;;;;;;8253400;28;20620;-61
2022/05/07 08:18:17;;;;;;;4.15;2.90;;;;;;;;;;8252470;28;20582;-61
2022/05/07 08:22:17;;;;;;;3.03;2.45;;;;;;;;;;8254252;28;20034;-61
2022/05/07 08:26:18;;;;;;;3.63;2.60;;;;;;;;;;8253068;28;20025;-60
2022/05/07 08:30:18;;;;;;;4.85;2.17;;;;;;;;;;8253218;28;20722;-61
2022/05/07 08:34:18;;;;;;;2.40;1.90;;;;;;;;;;8248550;28;20453;-61
2022/05/07 08:38:19;;;;;;;2.45;2.20;;;;;;;;;;8251377;28;20080;-61
2022/05/07 08:42:19;;;;;;;4.03;2.33;;;;;;;;;;8253247;28;20818;-61
2022/05/07 08:46:19;;;;;;;2.25;1.90;;;;;;;;;;8253371;28;20679;-61
2022/05/07 08:50:20;;;;;;;3.63;2.10;;;;;;;;;;8255006;28;20460;-61
2022/05/07 08:54:21;;;;;;;2.00;1.58;;;;;;;;;;8254738;28;20041;-61
2022/05/07 08:58:21;;;;;;;1.67;1.43;;;;;;;;;;8255529;28;20038;-60
2022/05/07 09:02:21;;;;;;;1.77;1.37;;;;;;;;;;8251149;28;20499;-59
2022/05/07 09:06:26;;;;;;;3.00;2.10;;;;;;;;;;8251214;28;20053;-63
2022/05/07 09:10:30;;;;;;;2.50;1.30;;;;;;;;;;8251219;28;20026;-62
2022/05/07 09:14:31;;;;;;;1.77;1.30;;;;;;;;;;8251235;28;20046;-63
2022/05/07 09:18:31;;;;;;;1.80;1.50;;;;;;;;;;8248582;28;20045;-63
2022/05/07 09:22:31;;;;;;;7.22;1.80;;;;;;;;;;8253104;28;20030;-63
2022/05/07 09:26:32;;;;;;;4.20;1.60;;;;;;;;;;8254307;28;20315;-60
2022/05/07 09:30:33;;;;;;;3.53;1.65;;;;;;;;;;8251621;28;20041;-61
2022/05/07 09:39:03;;;;;;;1.85;1.63;;;;;;;;;;8256021;28;20032;-62
2022/05/07 09:43:04;;;;;;;7.05;2.30;;;;;;;;;;8252410;28;20153;-60
2022/05/07 09:47:04;;;;;;;4.03;1.40;;;;;;;;;;8248241;28;20148;-61
2022/05/07 09:51:05;;;;;;;2.35;1.60;;;;;;;;;;8247717;28;20024;-60
2022/05/07 09:59:24;;;;;;;6.88;1.70;;;;;;;;;;8248768;28;20108;-60
2022/05/07 10:03:31;;;;;;;1.90;1.67;;;;;;;;;;8247262;28;20034;-60
2022/05/07 10:07:40;;;;;;;2.00;1.60;;;;;;;;;;8248766;28;20597;-61
2022/05/07 10:11:42;;;;;;;3.15;1.77;;;;;;;;;;8247679;28;20656;-61
2022/05/07 10:15:44;;;;;;;3.40;1.80;;;;;;;;;;8246081;28;20411;-61
2022/05/07 10:19:45;;;;;;;2.67;2.00;;;;;;;;;;8247167;28;20470;-61
2022/05/07 10:23:55;;;;;;;2.90;1.63;;;;;;;;;;8246275;28;20518;-61
2022/05/07 10:28:06;;;;;;;3.08;1.83;;;;;;;;;;8248031;28;20045;-61
2022/05/07 10:32:06;;;;;;;2.65;1.75;;;;;;;;;;8246412;28;20171;-61
2022/05/07 10:36:07;;;;;;;2.47;1.50;;;;;;;;;;8247261;28;20280;-60
2022/05/07 10:40:11;;;;;;;2.00;1.65;;;;;;;;;;8252128;28;20037;-61
2022/05/07 10:44:17;;;;;;;4.07;1.60;;;;;;;;;;8252394;28;20021;-61
2022/05/07 10:48:20;;;;;;;4.78;1.50;;;;;;;;;;8252611;28;20586;-61
2022/05/07 10:52:31;;;;;;;2.67;1.58;;;;;;;;;;8254661;28;20029;-60
2022/05/07 10:56:34;;;;;;;3.40;1.73;;;;;;;;;;8252907;28;20772;-61
2022/05/07 11:00:37;;;;;;;2.35;1.75;;;;;;;;;;8252958;28;20097;-61
2022/05/07 11:04:44;;;;;;;3.17;1.80;;;;;;;;;;8255542;28;20133;-62
2022/05/07 11:08:49;;;;;;;4.05;1.80;;;;;;;;;;8249203;28;20488;-61
2022/05/07 11:12:49;;;;;;;4.13;1.90;;;;;;;;;;8252468;28;20010;-60
2022/05/07 11:16:50;;;;;;;3.38;1.90;;;;;;;;;;8252811;28;20100;-61
2022/05/07 11:20:59;;;;;;;3.87;2.07;;;;;;;;;;8264239;28;20391;-61
2022/05/07 11:25:00;;;;;;;1.70;1.60;;;;;;;;;;8247978;28;20458;-60
2022/05/07 11:29:00;;;;;;;6.15;1.85;;;;;;;;;;8246433;28;20022;-60
2022/05/07 11:33:04;;;;;;;5.07;1.80;;;;;;;;;;8247265;28;20034;-61
2022/05/07 11:37:13;;;;;;;2.53;1.58;;;;;;;;;;8251366;28;20014;-61
2022/05/07 11:41:14;;;;;;;2.30;1.95;;;;;;;;;;8252231;28;20026;-61
2022/05/07 11:45:31;;;;;;;3.10;1.80;;;;;;;;;;8250674;28;20438;-60
2022/05/07 11:49:34;;;;;;;2.28;1.98;;;;;;;;;;8253145;28;20041;-60
2022/05/07 11:53:36;;;;;;;3.85;2.10;;;;;;;;;;8251151;28;20033;-60
2022/05/07 11:57:36;;;;;;;1.92;1.70;;;;;;;;;;8253419;28;20109;-60
2022/05/07 12:01:36;;;;;;;1.90;1.70;;;;;;;;;;8252089;28;20594;-60
2022/05/07 12:05:43;;;;;;;4.50;2.33;;;;;;;;;;8250806;28;20088;-60
2022/05/07 12:09:43;;;;;;;3.15;1.80;;;;;;;;;;8261779;28;20030;-60
2022/05/07 12:13:45;;;;;;;3.57;1.87;;;;;;;;;;8259310;28;20056;-60
2022/05/07 12:17:55;;;;;;;3.17;1.70;;;;;;;;;;8261150;28;20034;-61
2022/05/07 12:30:33;;;;;;;4.22;2.38;;;;;;;;;;8259548;28;20053;-60
2022/05/07 12:34:33;;;;;;;1.77;1.58;;;;;;;;;;8261658;28;20474;-60
2022/05/07 12:38:33;;;;;;;2.50;1.70;;;;;;;;;;8259920;28;20044;-60
2022/05/07 12:42:34;;;;;;;2.90;2.10;;;;;;;;;;8259327;28;20133;-60
2022/05/07 12:46:35;;;;;;;5.20;2.20;;;;;;;;;;8259548;28;20080;-60
2022/05/07 12:50:35;;;;;;;3.13;1.67;;;;;;;;;;8258640;28;20037;-60
2022/05/07 12:54:36;;;;;;;2.58;1.70;;;;;;;;;;8257799;28;20030;-60
2022/05/07 12:58:36;;;;;;;3.17;2.00;;;;;;;;;;8255542;28;20021;-59
2022/05/07 13:02:37;;;;;;;3.33;1.75;;;;;;;;;;8253420;28;20038;-60
2022/05/07 13:06:37;;;;;;;2.58;1.77;;;;;;;;;;8258015;28;20022;-60
2022/05/07 13:10:38;;;;;;;4.10;2.40;;;;;;;;;;8257816;28;20021;-60
2022/05/07 13:14:39;;;;;;;6.43;2.60;;;;;;;;;;8249684;28;20053;-60
2022/05/07 13:18:39;;;;;;;5.93;2.10;;;;;;;;;;8250395;28;20072;-60
2022/05/07 13:22:40;;;;;;;2.92;1.77;;;;;;;;;;8249363;28;20200;-60
2022/05/07 13:26:40;;;;;;;2.45;1.70;;;;;;;;;;8251112;28;20022;-61
2022/05/07 13:30:41;;;;;;;1.70;1.60;;;;;;;;;;8249706;28;20381;-61
2022/05/07 13:34:42;;;;;;;2.85;1.90;;;;;;;;;;8247211;28;20033;-61
2022/05/07 13:38:42;;;;;;;3.63;1.57;;;;;;;;;;8249772;28;20026;-60
2022/05/07 13:42:42;;;;;;;2.42;1.60;;;;;;;;;;8248344;28;20026;-60
2022/05/07 13:46:43;;;;;;;3.70;1.90;;;;;;;;;;8247911;28;20513;-60
2022/05/07 13:50:44;;;;;;;3.17;2.13;;;;;;;;;;8249012;28;20034;-61
2022/05/07 13:54:45;;;;;;;4.20;2.08;;;;;;;;;;8248613;28;20403;-60
2022/05/07 13:58:45;;;;;;;4.85;1.80;;;;;;;;;;8247703;28;20030;-60
2022/05/07 14:02:46;;;;;;;5.93;1.90;;;;;;;;;;8248276;28;20243;-60
2022/05/07 14:06:46;;;;;;;4.22;1.77;;;;;;;;;;8245468;28;20033;-60
2022/05/07 14:10:47;;;;;;;4.82;2.00;;;;;;;;;;8247771;28;20413;-60
2022/05/07 14:14:47;;;;;;;3.10;2.10;;;;;;;;;;8248210;28;20133;-60
2022/05/07 14:18:48;;;;;;;4.40;2.20;;;;;;;;;;8246396;28;20261;-60
2022/05/07 14:22:48;;;;;;;3.38;1.50;;;;;;;;;;8248518;28;20029;-60
2022/05/07 14:26:50;;;;;;;2.88;2.00;;;;;;;;;;8247277;28;20041;-60
2022/05/07 14:30:50;;;;;;;3.33;2.00;;;;;;;;;;8247207;28;20033;-60
2022/05/07 14:34:50;;;;;;;3.97;2.10;;;;;;;;;;8247274;28;20033;-60
2022/05/07 14:38:50;;;;;;;4.10;2.00;;;;;;;;;;8248903;28;20273;-60
2022/05/07 14:42:53;;;;;;;2.63;1.50;;;;;;;;;;8245221;28;20136;-60
2022/05/07 14:46:53;;;;;;;3.80;2.10;;;;;;;;;;8247398;28;20034;-60
2022/05/07 14:50:55;;;;;;;3.93;2.10;;;;;;;;;;8245316;28;20474;-60
2022/05/07 14:54:55;;;;;;;3.05;2.00;;;;;;;;;;8248003;28;20392;-60
2022/05/07 14:58:56;;;;;;;3.72;1.60;;;;;;;;;;8246851;28;20491;-60
2022/05/07 15:02:56;;;;;;;4.78;2.30;;;;;;;;;;8252187;28;20771;-60
2022/05/07 15:06:56;;;;;;;2.00;1.80;;;;;;;;;;8254043;28;20049;-60
2022/05/07 15:10:56;;;;;;;4.05;2.13;;;;;;;;;;8252759;28;22443;-60
2022/05/07 15:14:56;;;;;;;3.30;2.20;;;;;;;;;;8260252;28;20061;-60
2022/05/07 15:18:58;;;;;;;2.38;1.95;;;;;;;;;;8257236;28;20224;-60
2022/05/07 15:22:58;;;;;;;2.35;2.00;;;;;;;;;;8257725;28;20018;-60
2022/05/07 15:26:58;;;;;;;4.82;1.90;;;;;;;;;;8259665;28;20024;-61
2022/05/07 15:30:58;;;;;;;2.22;1.90;;;;;;;;;;8258048;28;20847;-60
2022/05/07 15:39:18;;;;;;;3.00;1.90;;;;;;;;;;8260486;28;20033;-61
2022/05/07 15:43:18;;;;;;;3.77;2.00;;;;;;;;;;8255161;28;20022;-59
2022/05/07 15:47:18;;;;;;;2.92;2.30;;;;;;;;;;8257587;28;21469;-59
2022/05/07 15:51:19;;;;;;;3.47;1.88;;;;;;;;;;8257711;28;20636;-59
2022/05/07 15:55:20;;;;;;;4.65;2.17;;;;;;;;;;8258112;28;20033;-59
2022/05/07 15:59:20;;;;;;;10.43;1.92;;;;;;;;;;8258839;28;20039;-60
2022/05/07 16:03:21;;;;;;;6.25;2.22;;;;;;;;;;8261635;28;20034;-59
2022/05/07 16:07:21;;;;;;;5.78;2.00;;;;;;;;;;8259941;28;20784;-59
2022/05/07 16:11:21;;;;;;;6.43;2.15;;;;;;;;;;8257117;28;20557;-59
2022/05/07 16:15:22;;;;;;;4.00;2.07;;;;;;;;;;8258683;28;20046;-59
2022/05/07 16:19:23;;;;;;;5.95;1.85;;;;;;;;;;8255912;28;20124;-61
2022/05/07 16:27:42;;;;;;;4.32;1.90;;;;;;;;;;8257678;28;20037;-60
2022/05/07 16:31:42;;;;;;;3.42;1.80;;;;;;;;;;8258384;28;20053;-59
2022/05/07 16:35:42;;;;;;;2.13;1.60;;;;;;;;;;8258817;28;20474;-60
2022/05/07 16:39:43;;;;;;;2.38;1.60;;;;;;;;;;8258734;28;20026;-60
2022/05/07 16:48:21;;;;;;;5.20;1.50;;;;;;;;;;8286151;28;20032;-59
2022/05/07 16:52:21;;;;;;;1.80;1.55;;;;;;;;;;8265271;28;20025;-61
2022/05/07 16:56:22;;;;;;;4.35;1.67;;;;;;;;;;8258596;28;20152;-61
2022/05/07 17:00:22;;;;;;;2.88;1.40;;;;;;;;;;8257200;28;20053;-60
2022/05/07 17:04:24;;;;;;;5.53;1.63;;;;;;;;;;8258171;28;20149;-59
2022/05/07 17:08:26;;;;;;;3.50;1.50;;;;;;;;;;8259114;28;20032;-59
2022/05/07 17:12:26;;;;;;;3.83;1.60;;;;;;;;;;8254739;28;20817;-60
2022/05/07 17:16:26;;;;;;;3.53;1.53;;;;;;;;;;8255176;28;20124;-60
2022/05/07 17:20:27;;;;;;;2.70;1.40;;;;;;;;;;8255679;28;20026;-60
2022/05/07 17:24:27;;;;;;;2.22;1.33;;;;;;;;;;8257087;28;20061;-61
2022/05/07 17:28:29;;;;;;;3.00;1.27;;;;;;;;;;8258076;28;20022;-60
2022/05/07 17:32:29;;;;;;;3.20;1.55;;;;;;;;;;8257686;28;20811;-61
2022/05/07 17:36:30;;;;;;;1.67;1.40;;;;;;;;;;8255806;28;20105;-62
2022/05/07 17:40:30;;;;;;;1.98;1.48;;;;;;;;;;8257015;28;20060;-60
2022/05/07 17:44:30;;;;;;;2.42;1.42;;;;;;;;;;8255699;28;20054;-60
2022/05/07 17:52:49;;;;;;;2.83;1.40;;;;;;;;;;8256649;28;20439;-61
2022/05/07 17:56:50;;;;;;;1.40;1.23;;;;;;;;;;8254501;28;20026;-60
2022/05/07 18:00:50;;;;;;;1.58;1.38;;;;;;;;;;8251794;28;20069;-60
2022/05/07 18:04:50;;;;;;;1.47;1.23;;;;;;;;;;8253321;28;20026;-60
2022/05/07 18:08:51;;;;;;;3.00;1.30;;;;;;;;;;8255099;28;20284;-60
2022/05/07 18:12:51;;;;;;;2.20;1.40;;;;;;;;;;8256439;28;20509;-60
2022/05/07 18:16:51;;;;;;;2.05;1.17;;;;;;;;;;8253455;28;20100;-60
2022/05/07 18:20:51;;;;;;;1.48;1.20;;;;;;;;;;8253389;28;20070;-60
2022/05/07 18:24:52;;;;;;;3.03;1.30;;;;;;;;;;8255172;28;20079;-60
2022/05/07 18:28:52;;;;;;;2.75;1.40;;;;;;;;;;8261691;28;20040;-60
2022/05/07 18:32:52;;;;;;;4.25;1.55;;;;;;;;;;8254098;28;20799;-60
2022/05/07 18:45:30;;;;;;;3.38;1.38;;;;;;;;;;8252667;28;20053;-60
2022/05/07 18:49:31;;;;;;;2.83;1.40;;;;;;;;;;8252559;28;20025;-60
2022/05/07 18:53:31;;;;;;;1.50;1.38;;;;;;;;;;8254686;28;20657;-61
2022/05/07 19:01:50;;;;;;;2.05;1.50;;;;;;;;;;8252885;28;20992;-60
2022/05/07 19:05:51;;;;;;;1.98;1.40;;;;;;;;;;8253142;28;20030;-60
2022/05/07 19:09:51;;;;;;;1.80;1.10;;;;;;;;;;8254602;28;20027;-60
2022/05/07 19:13:55;;;;;;;3.20;1.55;;;;;;;;;;8252495;28;20033;-60
2022/05/07 19:17:58;;;;;;;4.40;1.85;;;;;;;;;;8253099;28;20045;-60
2022/05/07 19:21:58;;;;;;;2.28;1.40;;;;;;;;;;8254068;28;20032;-60
2022/05/07 19:25:59;;;;;;;5.35;1.60;;;;;;;;;;8252466;28;20053;-60
2022/05/07 19:30:00;;;;;;;3.65;1.50;;;;;;;;;;8252985;28;20879;-60
2022/05/07 19:34:00;;;;;;;2.13;1.77;;;;;;;;;;8251707;28;20073;-59
2022/05/07 19:38:02;;;;;;;3.72;1.80;;;;;;;;;;8252292;28;20033;-59
2022/05/07 19:42:02;;;;;;;1.98;1.70;;;;;;;;;;8252675;28;20034;-60
2022/05/07 19:46:02;;;;;;;2.33;1.70;;;;;;;;;;8251933;28;20258;-60
2022/05/07 19:50:04;;;;;;;2.83;1.80;;;;;;;;;;8252810;28;20062;-60
2022/05/07 19:54:04;;;;;;;2.83;1.85;;;;;;;;;;8252665;28;20076;-60
2022/05/07 19:58:04;;;;;;;3.38;1.73;;;;;;;;;;8254595;28;20466;-60
2022/05/07 20:02:05;;;;;;;2.83;1.90;;;;;;;;;;8257794;28;20573;-59
2022/05/07 20:06:05;;;;;;;2.87;1.83;;;;;;;;;;8260103;28;20211;-60
2022/05/07 20:10:05;;;;;;;2.17;1.70;;;;;;;;;;8258579;28;20338;-60
2022/05/07 20:14:06;;;;;;;1.83;1.73;;;;;;;;;;8258632;28;20026;-59
2022/05/07 20:18:07;;;;;;;2.25;1.58;;;;;;;;;;8257528;28;20048;-60
2022/05/07 20:22:08;;;;;;;2.10;1.42;;;;;;;;;;8259545;28;20494;-60
2022/05/07 20:26:09;;;;;;;2.03;1.70;;;;;;;;;;8259109;28;20144;-60
2022/05/07 20:30:11;;;;;;;3.63;1.80;;;;;;;;;;8263606;28;20561;-60
2022/05/07 20:34:17;;;;;;;3.53;1.70;;;;;;;;;;8262462;28;20631;-60
2022/05/07 20:38:17;;;;;;;3.22;1.50;;;;;;;;;;8262186;28;20030;-60
2022/05/07 20:42:18;;;;;;;1.90;1.67;;;;;;;;;;8261216;28;20040;-60
2022/05/07 20:46:27;;;;;;;5.55;1.70;;;;;;;;;;8260006;28;20037;-60
2022/05/07 20:50:30;;;;;;;2.13;1.92;;;;;;;;;;8259181;28;20034;-60
2022/05/07 20:54:31;;;;;;;2.70;2.05;;;;;;;;;;8261345;28;20938;-60
2022/05/07 20:58:31;;;;;;;2.05;1.88;;;;;;;;;;8262615;28;20433;-59
2022/05/07 21:02:31;;;;;;;5.38;1.80;;;;;;;;;;8256099;28;20705;-60
2022/05/07 21:06:32;;;;;;;2.67;1.85;;;;;;;;;;8259347;28;20490;-60
2022/05/07 21:10:33;;;;;;;2.47;1.88;;;;;;;;;;8259535;28;20026;-61
2022/05/07 21:14:34;;;;;;;1.90;1.67;;;;;;;;;;8260062;28;20030;-60
2022/05/07 21:18:35;;;;;;;5.78;1.95;;;;;;;;;;8260056;28;20041;-61
2022/05/07 21:22:35;;;;;;;2.70;2.00;;;;;;;;;;8260363;28;20033;-60
2022/05/07 21:26:35;;;;;;;1.98;1.80;;;;;;;;;;8260009;28;20026;-60
2022/05/07 21:30:35;;;;;;;3.05;2.10;;;;;;;;;;8258934;28;20128;-60
2022/05/07 21:34:35;;;;;;;2.78;2.10;;;;;;;;;;8258267;28;20037;-61
2022/05/07 21:38:36;;;;;;;3.55;2.20;;;;;;;;;;8258743;28;20026;-60
2022/05/07 21:42:36;;;;;;;3.30;2.20;;;;;;;;;;8257624;28;20056;-60
2022/05/07 21:46:37;;;;;;;3.30;2.00;;;;;;;;;;8257047;28;20041;-60
2022/05/07 21:54:37;;;;;;;3.15;2.28;;;;;;;;;;8257760;28;20030;-59
2022/05/07 21:58:39;;;;;;;4.93;2.17;;;;;;;;;;8258049;28;20053;-59
2022/05/07 22:02:39;;;;;;;6.43;2.47;;;;;;;;;;8256307;28;20050;-59
2022/05/07 22:06:41;;;;;;;2.53;2.15;;;;;;;;;;8257603;28;20042;-59
2022/05/07 22:10:42;;;;;;;2.53;2.20;;;;;;;;;;8254705;28;20076;-60
2022/05/07 22:14:42;;;;;;;4.53;2.65;;;;;;;;;;8256386;28;20017;-60
2022/05/07 22:18:42;;;;;;;3.25;2.35;;;;;;;;;;8253259;28;20106;-60
2022/05/07 22:22:43;;;;;;;4.97;2.47;;;;;;;;;;8255432;28;20033;-60
2022/05/07 22:26:43;;;;;;;5.38;2.60;;;;;;;;;;8256994;28;20139;-60
2022/05/07 22:30:43;;;;;;;2.70;2.50;;;;;;;;;;8255638;28;20106;-61
2022/05/07 22:34:43;;;;;;;4.95;2.55;;;;;;;;;;8256625;28;20022;-60
2022/05/07 22:38:43;;;;;;;2.77;2.43;;;;;;;;;;8258857;28;20026;-60
2022/05/07 22:42:46;;;;;;;4.30;3.10;;;;;;;;;;8256398;28;20479;-60
2022/05/07 22:46:46;;;;;;;3.90;2.88;;;;;;;;;;8258038;28;20033;-61
2022/05/07 22:50:46;;;;;;;4.13;2.90;;;;;;;;;;8257933;28;20022;-60
2022/05/07 22:54:46;;;;;;;5.57;2.97;;;;;;;;;;8254267;28;20029;-60
2022/05/07 22:58:46;;;;;;;3.08;2.78;;;;;;;;;;8255952;28;20029;-61
2022/05/07 23:02:47;;;;;;;3.65;2.88;;;;;;;;;;8254611;28;20061;-60
2022/05/07 23:06:47;;;;;;;3.17;2.63;;;;;;;;;;8256653;28;20042;-61
2022/05/07 23:10:47;;;;;;;2.85;2.65;;;;;;;;;;8257079;28;20022;-59
2022/05/07 23:14:47;;;;;;;5.45;3.22;;;;;;;;;;8256212;28;20914;-60
2022/05/07 23:18:47;;;;;;;3.22;2.83;;;;;;;;;;8254908;28;20084;-59
2022/05/07 23:22:48;;;;;;;4.55;3.30;;;;;;;;;;8254563;28;20029;-60
2022/05/07 23:26:48;;;;;;;4.97;2.90;;;;;;;;;;8255719;28;20028;-60
2022/05/07 23:30:48;;;;;;;3.23;2.93;;;;;;;;;;8256466;28;20114;-59
2022/05/07 23:34:48;;;;;;;4.28;2.90;;;;;;;;;;8263020;28;20273;-60
2022/05/07 23:38:49;;;;;;;6.32;3.50;;;;;;;;;;8261984;28;20994;-60
2022/05/07 23:42:49;;;;;;;5.23;3.40;;;;;;;;;;8261220;28;20077;-59
2022/05/07 23:46:49;;;;;;;4.88;3.28;;;;;;;;;;8261320;28;20370;-60
2022/05/07 23:50:49;;;;;;;4.82;3.47;;;;;;;;;;8260557;28;20037;-60
2022/05/07 23:54:49;;;;;;;3.85;3.40;;;;;;;;;;8260802;28;20033;-60
2022/05/07 23:58:49;;;;;;;5.47;3.85;;;;;;;;;;8260681;28;20061;-60
